createdAt,value
2023-02-04T00:04:46.091Z,0.30
2023-02-04T00:09:49.999Z,0.20
2023-02-04T00:19:55.473Z,0.10
2023-02-04T00:24:57.949Z,0.10
2023-02-04T00:30:00.439Z,0.30
2023-02-04T00:35:04.780Z,0.10
2023-02-04T00:40:08.513Z,0.10
2023-02-04T00:45:13.220Z,0.10
2023-02-04T00:50:16.101Z,0.10
2023-02-04T00:55:19.393Z,0.00
2023-02-04T01:00:21.939Z,0.00
2023-02-04T01:05:24.452Z,0.10
2023-02-04T01:10:27.088Z,0.10
2023-02-04T01:15:29.875Z,-0.20
2023-02-04T01:20:32.593Z,-0.50
2023-02-04T01:25:35.419Z,-0.40
2023-02-04T01:30:38.090Z,-0.40
2023-02-04T01:35:40.551Z,-0.60
2023-02-04T01:40:43.790Z,-0.60
2023-02-04T01:45:46.733Z,-0.70
2023-02-04T01:50:52.578Z,-0.80
2023-02-04T01:55:55.763Z,-0.80
2023-02-04T02:00:58.463Z,-0.90
2023-02-04T02:06:01.142Z,-0.90
2023-02-04T02:11:03.922Z,-1.00
2023-02-04T02:16:07.976Z,-0.70
2023-02-04T02:21:12.106Z,-0.60
2023-02-04T02:26:16.582Z,-0.70
2023-02-04T02:31:21.845Z,-0.80
2023-02-04T02:36:24.422Z,-0.80
2023-02-04T02:41:27.087Z,-0.30
2023-02-04T02:46:29.656Z,-0.50
2023-02-04T02:51:32.371Z,-0.10
2023-02-04T02:56:34.972Z,-0.20
2023-02-04T03:01:37.641Z,-0.50
2023-02-04T03:06:41.052Z,-0.20
2023-02-04T03:11:43.860Z,-0.30
2023-02-04T03:16:47.719Z,-0.50
2023-02-04T03:21:50.433Z,-0.60
2023-02-04T03:26:53.136Z,-0.30
2023-02-04T03:31:55.913Z,-0.70
2023-02-04T03:36:58.495Z,-0.70
2023-02-04T03:42:01.107Z,-0.30
2023-02-04T03:47:03.634Z,-0.40
2023-02-04T03:52:06.734Z,0.10
2023-02-04T03:57:10.077Z,-0.40
2023-02-04T04:02:12.623Z,0.20
2023-02-04T04:07:15.094Z,-0.30
2023-02-04T04:12:17.597Z,0.00
2023-02-04T04:17:20.198Z,0.10
2023-02-04T04:22:22.843Z,-0.30
2023-02-04T04:27:26.086Z,-0.60
2023-02-04T04:32:28.539Z,0.10
2023-02-04T04:37:31.104Z,0.50
2023-02-04T04:42:33.595Z,0.30
2023-02-04T04:47:36.055Z,0.50
2023-02-04T04:52:38.736Z,1.00
2023-02-04T04:57:41.434Z,1.40
2023-02-04T05:02:43.983Z,1.30
2023-02-04T05:07:46.445Z,2.60
2023-02-04T05:12:48.948Z,1.80
2023-02-04T05:17:51.415Z,1.90
2023-02-04T05:22:56.003Z,1.60
2023-02-04T05:27:58.584Z,2.00
2023-02-04T05:33:01.206Z,1.50
2023-02-04T05:38:03.714Z,1.90
2023-02-04T05:43:06.256Z,2.10
2023-02-04T05:48:08.829Z,3.10
2023-02-04T05:53:11.420Z,3.70
2023-02-04T05:58:13.939Z,4.20
2023-02-04T06:03:19.471Z,4.40
2023-02-04T06:08:22.091Z,4.90
2023-02-04T06:13:24.759Z,5.60
2023-02-04T06:18:27.272Z,4.60
2023-02-04T06:23:29.836Z,4.90
2023-02-04T06:28:32.345Z,5.30
2023-02-04T06:33:36.801Z,5.50
2023-02-04T06:38:39.233Z,6.10
2023-02-04T06:43:41.884Z,5.80
2023-02-04T06:48:44.363Z,5.70
2023-02-04T06:53:46.881Z,6.00
2023-02-04T06:58:49.605Z,6.30
2023-02-04T07:03:52.216Z,5.30
2023-02-04T07:08:54.915Z,5.50
2023-02-04T07:13:57.408Z,3.90
2023-02-04T07:18:59.983Z,3.40
2023-02-04T07:24:02.499Z,3.90
2023-02-04T07:29:08.467Z,3.80
2023-02-04T07:34:14.802Z,4.20
2023-02-04T07:39:17.353Z,4.40
2023-02-04T07:44:19.976Z,4.50
2023-02-04T07:49:22.599Z,4.80
2023-02-04T07:54:25.091Z,5.10
2023-02-04T07:59:27.640Z,5.40
2023-02-04T08:04:30.424Z,4.90
2023-02-04T08:09:32.967Z,5.30
2023-02-04T08:14:35.571Z,5.40
2023-02-04T08:19:38.163Z,6.20
2023-02-04T08:24:40.843Z,6.50
2023-02-04T08:29:43.316Z,6.30
2023-02-04T08:34:46.571Z,6.00
2023-02-04T08:39:49.190Z,5.40
2023-02-04T08:44:51.947Z,5.40
2023-02-04T08:49:55.824Z,4.70
2023-02-04T08:54:58.450Z,4.80
2023-02-04T09:00:01.651Z,3.90
2023-02-04T09:05:04.381Z,3.50
2023-02-04T09:10:07.749Z,3.80
2023-02-04T09:15:11.549Z,4.60
2023-02-04T09:20:14.112Z,3.70
2023-02-04T09:25:16.635Z,4.00
2023-02-04T09:30:19.322Z,3.50
2023-02-04T09:35:21.901Z,4.80
2023-02-04T09:40:27.530Z,4.00
2023-02-04T09:45:34.716Z,4.50
2023-02-04T09:50:37.396Z,5.60
2023-02-04T09:55:43.076Z,4.80
2023-02-04T10:00:48.469Z,4.80
2023-02-04T10:05:52.089Z,5.20
2023-02-04T10:10:56.304Z,5.70
2023-02-04T10:16:01.424Z,5.90
2023-02-04T10:21:17.905Z,3.90
2023-02-04T10:26:22.117Z,3.80
2023-02-04T10:31:41.827Z,3.40
2023-02-04T10:36:46.952Z,3.30
2023-02-04T10:41:52.917Z,3.80
2023-02-04T10:47:09.635Z,3.20
2023-02-04T10:52:17.279Z,2.70
2023-02-04T10:57:31.003Z,3.60
2023-02-04T11:02:46.094Z,4.10
2023-02-04T11:07:49.845Z,3.60
2023-02-04T11:12:55.515Z,4.30
2023-02-04T11:23:30.075Z,2.80
2023-02-04T11:28:44.518Z,3.20
2023-02-04T11:33:48.298Z,4.00
2023-02-04T11:38:51.163Z,4.60
2023-02-04T11:43:55.525Z,5.40
2023-02-04T11:48:59.421Z,6.50
2023-02-04T11:54:01.815Z,6.00
2023-02-04T11:59:04.611Z,6.20
2023-02-04T12:04:24.521Z,6.10
2023-02-04T12:09:30.000Z,6.20
2023-02-04T12:14:38.105Z,5.30
2023-02-04T12:19:40.505Z,5.30
2023-02-04T12:24:44.088Z,5.90
2023-02-04T12:29:46.621Z,5.70
2023-02-04T12:34:49.139Z,6.50
2023-02-04T12:39:51.805Z,6.10
2023-02-04T12:44:54.370Z,4.20
2023-02-04T12:49:56.825Z,6.10
2023-02-04T12:55:01.362Z,4.30
2023-02-04T13:00:04.859Z,5.10
2023-02-04T13:05:08.449Z,5.20
2023-02-04T13:10:13.578Z,6.20
2023-02-04T13:15:16.459Z,5.30
2023-02-04T13:20:19.606Z,4.00
2023-02-04T13:25:22.121Z,3.90
2023-02-04T13:30:24.751Z,4.10
2023-02-04T13:35:27.375Z,4.30
2023-02-04T13:40:29.999Z,2.50
2023-02-04T13:45:32.857Z,3.40
2023-02-04T13:50:35.640Z,3.60
2023-02-04T13:55:38.251Z,5.40
2023-02-04T14:00:40.846Z,4.60
2023-02-04T14:05:43.350Z,3.90
2023-02-04T14:10:46.135Z,4.90
2023-02-04T14:15:48.699Z,4.00
2023-02-04T14:20:51.180Z,4.60
2023-02-04T14:25:54.205Z,3.70
2023-02-04T14:30:56.757Z,5.20
2023-02-04T14:35:59.227Z,5.10
2023-02-04T14:41:01.715Z,5.40
2023-02-04T14:46:05.812Z,6.00
2023-02-04T14:51:08.363Z,5.70
2023-02-04T14:56:11.032Z,5.70
2023-02-04T15:01:13.621Z,5.40
2023-02-04T15:06:16.315Z,5.50
2023-02-04T15:11:19.434Z,6.10
2023-02-04T15:16:22.075Z,6.40
2023-02-04T15:21:24.685Z,4.50
2023-02-04T15:26:27.552Z,1.70
2023-02-04T15:31:30.222Z,1.30
2023-02-04T15:36:32.784Z,2.90
2023-02-04T15:41:35.341Z,3.70
2023-02-04T15:46:38.248Z,4.00
2023-02-04T15:51:40.894Z,4.50
2023-02-04T15:56:44.513Z,4.90
2023-02-04T16:01:47.362Z,5.10
2023-02-04T16:06:58.070Z,5.00
2023-02-04T16:12:01.428Z,5.00
2023-02-04T16:17:04.034Z,5.20
2023-02-04T16:22:07.217Z,6.10
2023-02-04T16:27:09.724Z,5.90
2023-02-04T16:32:12.278Z,5.90
2023-02-04T16:37:14.891Z,5.70
2023-02-04T16:42:17.580Z,5.40
2023-02-04T16:47:20.954Z,4.50
2023-02-04T16:52:23.657Z,4.90
2023-02-04T16:57:26.413Z,4.90
2023-02-04T17:02:29.114Z,4.70
2023-02-04T17:07:31.747Z,4.90
2023-02-04T17:12:34.319Z,4.90
2023-02-04T17:17:36.839Z,4.90
2023-02-04T17:22:39.347Z,4.80
2023-02-04T17:27:41.945Z,4.80
2023-02-04T17:32:45.585Z,5.40
2023-02-04T17:37:48.336Z,4.80
2023-02-04T17:42:50.889Z,4.30
2023-02-04T17:47:53.620Z,4.40
2023-02-04T17:52:56.233Z,4.50
2023-02-04T17:58:01.123Z,4.50
2023-02-04T18:03:03.899Z,4.00
2023-02-04T18:08:26.787Z,4.60
2023-02-04T18:13:35.134Z,4.10
2023-02-04T18:18:39.967Z,4.00
2023-02-04T18:23:44.448Z,3.70
2023-02-04T18:28:49.057Z,3.90
2023-02-04T18:33:51.607Z,4.80
2023-02-04T18:38:55.461Z,5.00
2023-02-04T18:44:22.766Z,4.20
2023-02-04T18:49:29.364Z,4.30
2023-02-04T18:54:37.299Z,3.90
2023-02-04T18:59:41.256Z,5.20
2023-02-04T19:04:44.998Z,4.10
2023-02-04T19:09:47.407Z,3.80
2023-02-04T19:14:50.116Z,3.80
2023-02-04T19:20:02.521Z,3.90
2023-02-04T19:25:24.067Z,2.70
2023-02-04T19:30:26.715Z,2.30
2023-02-04T19:35:39.889Z,3.00
2023-02-04T19:40:42.961Z,3.20
2023-02-04T19:45:46.890Z,3.90
2023-02-04T19:50:53.271Z,3.10
2023-02-04T19:55:56.368Z,3.80
2023-02-04T20:01:04.160Z,4.40
2023-02-04T20:06:33.445Z,4.60
2023-02-04T20:11:41.695Z,4.40
2023-02-04T20:16:50.033Z,5.50
2023-02-04T20:22:07.590Z,5.80
2023-02-04T20:27:20.053Z,6.10
2023-02-04T20:32:28.431Z,3.60
2023-02-04T20:37:31.757Z,3.40
2023-02-04T20:42:43.361Z,4.20
2023-02-04T20:47:47.703Z,4.90
2023-02-04T20:52:51.258Z,4.00
2023-02-04T20:58:08.990Z,4.80
2023-02-04T21:03:23.428Z,6.20
2023-02-04T21:08:29.562Z,3.70
2023-02-04T21:13:32.616Z,4.80
2023-02-04T21:18:35.946Z,5.00
2023-02-04T21:23:38.970Z,4.00
2023-02-04T21:28:41.587Z,4.90
2023-02-04T21:33:44.024Z,3.80
2023-02-04T21:38:49.134Z,3.30
2023-02-04T21:43:52.416Z,3.00
2023-02-04T21:48:54.882Z,3.00
2023-02-04T21:53:57.773Z,4.30
2023-02-04T21:59:00.332Z,3.60
2023-02-04T22:04:02.925Z,3.90
2023-02-04T22:09:05.491Z,3.60
2023-02-04T22:14:26.354Z,3.60
2023-02-04T22:19:28.925Z,2.60
2023-02-04T22:24:31.486Z,2.90
2023-02-04T22:29:34.133Z,3.80
2023-02-04T22:34:36.834Z,4.50
2023-02-04T22:39:39.446Z,4.00
2023-02-04T22:44:42.039Z,3.80
2023-02-04T22:49:44.482Z,3.70
2023-02-04T22:54:47.223Z,2.90
2023-02-04T22:59:49.754Z,2.10
2023-02-04T23:04:52.213Z,2.50
2023-02-04T23:09:54.806Z,1.90
2023-02-04T23:14:57.246Z,2.50
2023-02-04T23:19:59.734Z,2.60
2023-02-04T23:25:03.724Z,2.30
2023-02-04T23:30:08.219Z,2.40
2023-02-04T23:35:10.829Z,2.20
2023-02-04T23:40:13.517Z,2.40
2023-02-04T23:45:16.119Z,2.30
2023-02-04T23:50:19.043Z,2.60
2023-02-04T23:55:21.605Z,2.40
